Time;durP1;ratioP1;P1;durP2;ratioP2;P2;SDS_P1;SDS_P2;PMS_P1;PMS_P2;Temp;Humidity;BMP_temperature;BMP_pressure;BME280_temperature;BME280_humidity;BME280_pressure;Samples;Min_cycle;Max_cycle;Signal;HPM_P1;HPM_P2
2023/06/24 00:01:40;;;;;;;0.00;0.00;;;;;;;14.65;84.71;98294.09;4898050;29;20047;-76
2023/06/24 00:04:08;;;;;;;0.13;0.13;;;;;;;14.68;84.69;98298.25;4892126;29;20090;-76
2023/06/24 00:06:36;;;;;;;0.10;0.10;;;;;;;14.62;85.35;98288.34;4901115;29;20080;-76
2023/06/24 00:09:04;;;;;;;0.20;0.20;;;;;;;14.67;84.90;98292.06;4891549;29;20058;-75
2023/06/24 00:11:32;;;;;;;0.03;0.03;;;;;;;14.56;85.51;98305.25;4905530;29;20071;-76
2023/06/24 00:13:59;;;;;;;0.10;0.10;;;;;;;14.46;85.99;98299.44;4888790;29;20079;-75
2023/06/24 00:16:27;;;;;;;0.13;0.13;;;;;;;14.44;85.97;98301.47;4901223;29;20408;-76
2023/06/24 00:19:01;;;;;;;0.30;0.30;;;;;;;14.43;86.25;98294.47;4900862;29;20460;-75
2023/06/24 00:21:30;;;;;;;0.22;0.22;;;;;;;14.33;86.33;98294.78;4895875;29;20040;-75
2023/06/24 00:23:58;;;;;;;0.15;0.15;;;;;;;14.33;86.59;98292.13;4902621;29;20044;-75
2023/06/24 00:26:26;;;;;;;0.10;0.10;;;;;;;14.37;86.62;98290.69;4890385;29;20048;-75
2023/06/24 00:28:54;;;;;;;0.03;0.03;;;;;;;14.54;86.03;98296.56;4896753;29;20048;-76
2023/06/24 00:31:21;;;;;;;0.20;0.20;;;;;;;14.51;85.96;98288.91;4906973;29;20445;-75
2023/06/24 00:33:52;;;;;;;0.22;0.22;;;;;;;14.47;86.52;98296.53;4903869;29;20493;-76
2023/06/24 00:36:21;;;;;;;0.05;0.05;;;;;;;14.26;87.34;98300.16;4907345;29;20050;-75
2023/06/24 00:38:49;;;;;;;0.20;0.20;;;;;;;14.41;87.42;98315.34;4903254;29;20512;-76
2023/06/24 00:41:18;;;;;;;0.20;0.20;;;;;;;14.47;86.71;98311.84;4900528;29;20052;-76
2023/06/24 00:43:46;;;;;;;0.03;0.03;;;;;;;14.52;86.48;98315.59;4917850;29;20052;-76
2023/06/24 00:46:15;;;;;;;0.13;0.13;;;;;;;14.52;86.42;98309.38;4907516;29;20076;-76
2023/06/24 00:48:43;;;;;;;0.20;0.20;;;;;;;14.54;86.14;98304.59;4903003;29;20143;-76
2023/06/24 00:51:10;;;;;;;0.10;0.10;;;;;;;14.51;86.42;98305.03;4906607;29;20500;-76
2023/06/24 00:53:39;;;;;;;0.10;0.10;;;;;;;14.49;86.17;98294.50;4908280;29;20279;-76
2023/06/24 00:56:07;;;;;;;0.32;0.32;;;;;;;14.50;86.25;98303.38;4896398;29;20048;-75
2023/06/24 00:58:36;;;;;;;0.10;0.10;;;;;;;14.43;86.67;98292.59;4903286;29;20523;-75
2023/06/24 01:01:05;;;;;;;0.20;0.20;;;;;;;14.53;86.46;98297.63;4895709;29;20051;-75
2023/06/24 01:03:33;;;;;;;0.20;0.20;;;;;;;14.55;85.67;98296.34;4910132;29;20472;-75
2023/06/24 01:06:01;;;;;;;0.20;0.20;;;;;;;14.54;86.11;98291.19;4893436;29;20449;-76
2023/06/24 01:08:30;;;;;;;0.15;0.15;;;;;;;14.58;85.83;98287.06;4910625;29;20514;-76
2023/06/24 01:10:59;;;;;;;0.30;0.30;;;;;;;14.63;85.57;98290.00;4894466;29;20049;-76
2023/06/24 01:13:27;;;;;;;0.30;0.30;;;;;;;14.58;85.51;98289.75;4910824;29;20135;-74
2023/06/24 01:15:55;;;;;;;0.10;0.10;;;;;;;14.53;85.86;98297.63;4903142;29;20586;-76
2023/06/24 01:18:29;;;;;;;0.10;0.10;;;;;;;14.48;86.11;98286.63;4907320;29;20062;-76
2023/06/24 01:21:02;;;;;;;0.20;0.20;;;;;;;14.40;86.62;98292.19;4884973;29;20140;-76
2023/06/24 01:23:47;;;;;;;0.15;0.15;;;;;;;14.45;86.20;98277.09;4906041;29;20036;-75
2023/06/24 01:26:30;;;;;;;0.17;0.17;;;;;;;14.36;87.17;98277.47;4898776;29;20081;-76
2023/06/24 01:29:28;;;;;;;0.15;0.15;;;;;;;14.41;86.50;98273.19;4903693;29;20048;-76
2023/06/24 01:32:00;;;;;;;0.10;0.10;;;;;;;14.36;87.01;98269.41;4905483;29;20040;-76
2023/06/24 01:34:32;;;;;;;0.20;0.20;;;;;;;14.59;85.68;98272.59;4896089;29;20404;-76
2023/06/24 01:37:09;;;;;;;0.20;0.20;;;;;;;14.50;85.71;98263.91;4906273;29;20470;-75
2023/06/24 01:39:39;;;;;;;0.30;0.30;;;;;;;14.52;85.97;98259.16;4904427;29;20051;-76
2023/06/24 01:42:09;;;;;;;0.13;0.13;;;;;;;14.51;85.74;98264.75;4901945;29;20053;-76
2023/06/24 01:44:38;;;;;;;0.13;0.13;;;;;;;14.50;85.78;98263.09;4910409;29;20050;-75
2023/06/24 01:47:08;;;;;;;0.22;0.22;;;;;;;14.44;85.50;98271.94;4906652;29;20063;-76
2023/06/24 01:49:38;;;;;;;0.20;0.20;;;;;;;14.45;85.21;98271.75;4906212;29;20117;-76
2023/06/24 01:52:06;;;;;;;0.10;0.10;;;;;;;14.53;85.15;98268.06;4902965;29;20040;-76
2023/06/24 01:54:35;;;;;;;0.10;0.10;;;;;;;14.50;85.13;98269.28;4931437;23;20051;-74
2023/06/24 01:57:04;;;;;;;0.22;0.22;;;;;;;14.44;85.39;98259.34;4924246;29;20173;-73
2023/06/24 01:59:32;;;;;;;0.30;0.30;;;;;;;14.28;85.94;98252.44;4931648;29;20044;-74
2023/06/24 02:02:01;;;;;;;0.22;0.22;;;;;;;14.20;87.19;98249.13;4918952;29;20055;-74
2023/06/24 02:04:31;;;;;;;0.20;0.20;;;;;;;14.21;87.13;98246.25;4914667;29;20507;-73
2023/06/24 02:07:01;;;;;;;0.22;0.22;;;;;;;14.44;86.17;98242.38;4902882;29;20135;-72
2023/06/24 02:09:32;;;;;;;0.13;0.13;;;;;;;14.59;85.31;98243.88;4898736;29;20071;-72
2023/06/24 02:12:01;;;;;;;0.20;0.20;;;;;;;14.51;85.58;98243.25;4892862;29;20053;-73
2023/06/24 02:14:30;;;;;;;0.03;0.03;;;;;;;14.45;85.62;98241.34;4896265;29;20134;-73
2023/06/24 02:17:00;;;;;;;0.22;0.22;;;;;;;14.46;85.54;98246.53;4901277;29;20071;-74
2023/06/24 02:19:31;;;;;;;0.17;0.17;;;;;;;14.52;84.80;98248.44;4896035;29;20049;-74
2023/06/24 02:22:00;;;;;;;0.15;0.15;;;;;;;14.41;84.93;98248.19;4897249;29;20115;-74
2023/06/24 02:24:29;;;;;;;0.13;0.13;;;;;;;14.33;85.75;98244.59;4898759;29;20040;-74
2023/06/24 02:26:57;;;;;;;0.20;0.20;;;;;;;14.20;86.67;98233.84;4894892;29;20062;-74
2023/06/24 02:29:26;;;;;;;0.20;0.20;;;;;;;14.26;86.54;98235.72;4897805;29;20036;-74
2023/06/24 02:31:54;;;;;;;0.13;0.13;;;;;;;14.43;85.60;98235.38;4899947;29;20081;-74
2023/06/24 02:34:23;;;;;;;0.13;0.13;;;;;;;14.43;85.67;98238.88;4902989;29;20451;-73
2023/06/24 02:36:53;;;;;;;0.20;0.20;;;;;;;14.32;85.65;98239.47;4900534;29;20037;-74
2023/06/24 02:39:20;;;;;;;0.30;0.30;;;;;;;14.39;85.59;98234.09;4903556;29;20112;-73
2023/06/24 02:41:49;;;;;;;0.20;0.20;;;;;;;14.31;85.58;98235.13;4903623;29;20493;-72
2023/06/24 02:44:17;;;;;;;0.15;0.15;;;;;;;14.32;85.41;98236.78;4899656;29;20060;-72
2023/06/24 02:46:46;;;;;;;0.10;0.10;;;;;;;14.21;86.06;98238.19;4894151;29;20045;-73
2023/06/24 02:49:17;;;;;;;0.20;0.20;;;;;;;14.13;86.47;98243.72;4902033;29;20108;-73
2023/06/24 02:51:45;;;;;;;0.32;0.32;;;;;;;14.22;86.41;98236.34;4888851;29;20059;-73
2023/06/24 02:54:15;;;;;;;0.13;0.13;;;;;;;14.47;85.40;98236.63;4899127;29;20052;-72
2023/06/24 02:57:05;;;;;;;0.15;0.15;;;;;;;14.44;85.39;98242.38;4890299;29;20493;-74
2023/06/24 02:59:52;;;;;;;0.13;0.13;;;;;;;14.38;85.30;98245.88;4895874;29;20068;-74
2023/06/24 03:02:21;;;;;;;0.30;0.30;;;;;;;14.26;85.66;98240.25;4890664;29;20052;-72
2023/06/24 03:04:49;;;;;;;0.22;0.22;;;;;;;14.23;85.63;98246.84;4889145;29;20044;-73
2023/06/24 03:07:20;;;;;;;0.17;0.17;;;;;;;14.32;85.63;98248.34;4890570;29;20134;-74
2023/06/24 03:09:49;;;;;;;0.22;0.22;;;;;;;14.44;84.94;98262.03;4888744;29;20047;-74
2023/06/24 03:12:17;;;;;;;0.15;0.15;;;;;;;14.27;85.20;98264.22;4897299;29;20580;-74
2023/06/24 03:14:45;;;;;;;0.13;0.13;;;;;;;14.16;86.01;98264.81;4902498;29;20092;-73
2023/06/24 03:17:13;;;;;;;0.05;0.05;;;;;;;14.14;86.37;98269.53;4892921;29;20515;-73
2023/06/24 03:19:40;;;;;;;0.20;0.20;;;;;;;14.27;86.03;98258.84;4893862;29;20075;-73
2023/06/24 03:22:08;;;;;;;0.22;0.22;;;;;;;14.27;85.96;98264.22;4898016;29;20065;-73
2023/06/24 03:24:36;;;;;;;0.08;0.08;;;;;;;14.40;85.12;98268.84;4896934;29;20041;-74
2023/06/24 03:27:05;;;;;;;0.03;0.03;;;;;;;14.39;85.07;98271.69;4897480;29;20104;-73
2023/06/24 03:29:39;;;;;;;0.20;0.20;;;;;;;14.40;85.34;98276.06;4903307;29;20080;-74
2023/06/24 03:32:13;;;;;;;0.20;0.20;;;;;;;14.45;84.77;98284.34;4900216;29;20052;-73
2023/06/24 03:34:42;;;;;;;0.13;0.13;;;;;;;14.55;83.85;98276.72;4899431;29;20040;-74
2023/06/24 03:37:11;;;;;;;0.15;0.15;;;;;;;14.30;84.73;98284.47;4898773;29;20060;-74
2023/06/24 03:39:41;;;;;;;0.10;0.10;;;;;;;14.08;85.91;98286.47;4899192;29;20048;-72
2023/06/24 03:42:11;;;;;;;0.10;0.10;;;;;;;14.15;85.66;98292.66;4898060;29;20045;-73
2023/06/24 03:44:38;;;;;;;0.20;0.20;;;;;;;14.19;85.54;98298.47;4902446;29;20055;-72
2023/06/24 03:47:06;;;;;;;0.30;0.30;;;;;;;14.33;84.68;98292.94;4885459;29;20149;-73
2023/06/24 03:49:34;;;;;;;0.13;0.13;;;;;;;14.19;85.47;98288.56;4903837;29;20503;-73
2023/06/24 03:52:01;;;;;;;0.13;0.13;;;;;;;14.21;85.52;98299.94;4887038;29;20045;-73
2023/06/24 03:54:32;;;;;;;0.10;0.10;;;;;;;14.33;85.17;98290.25;4897700;29;20040;-73
2023/06/24 03:57:00;;;;;;;0.25;0.25;;;;;;;14.27;85.24;98291.06;4885785;29;20468;-73
2023/06/24 03:59:29;;;;;;;0.20;0.20;;;;;;;14.21;85.36;98302.63;4897903;29;20547;-73
2023/06/24 04:01:57;;;;;;;0.15;0.15;;;;;;;14.36;84.82;98302.47;4889863;29;20045;-73
2023/06/24 04:04:25;;;;;;;0.13;0.13;;;;;;;14.19;85.30;98309.22;4886582;29;20342;-73
2023/06/24 04:06:52;;;;;;;0.20;0.20;;;;;;;14.05;85.60;98319.06;4886620;29;20126;-71
2023/06/24 04:09:22;;;;;;;0.10;0.10;;;;;;;14.05;85.41;98324.44;4887046;29;20330;-73
2023/06/24 04:11:53;;;;;;;0.10;0.10;;;;;;;14.11;85.54;98323.66;4888751;29;20047;-72
2023/06/24 04:14:21;;;;;;;0.10;0.10;;;;;;;14.14;85.22;98323.22;4899637;29;20040;-72
2023/06/24 04:16:50;;;;;;;0.20;0.20;;;;;;;14.21;85.00;98323.28;4885667;29;20060;-73
2023/06/24 04:19:17;;;;;;;0.22;0.22;;;;;;;14.15;84.97;98324.88;4892089;29;20060;-73
2023/06/24 04:21:45;;;;;;;0.13;0.13;;;;;;;14.12;85.64;98325.28;4892311;29;20055;-72
2023/06/24 04:24:13;;;;;;;0.03;0.03;;;;;;;14.16;85.36;98326.56;4900625;29;20088;-73
2023/06/24 04:26:40;;;;;;;0.22;0.22;;;;;;;14.17;85.07;98333.59;4880730;29;20136;-73
2023/06/24 04:29:08;;;;;;;0.13;0.13;;;;;;;14.18;85.70;98334.41;4893399;29;20056;-73
2023/06/24 04:31:35;;;;;;;0.13;0.13;;;;;;;14.26;85.42;98334.22;4902567;29;20588;-73
2023/06/24 04:34:05;;;;;;;0.08;0.08;;;;;;;14.26;85.33;98336.91;4895980;29;20188;-73
2023/06/24 04:36:33;;;;;;;0.28;0.28;;;;;;;14.25;85.63;98341.47;4891357;29;20399;-72
2023/06/24 04:39:00;;;;;;;0.22;0.22;;;;;;;14.41;85.05;98339.50;4893312;29;20060;-73
2023/06/24 04:41:29;;;;;;;0.17;0.17;;;;;;;14.44;84.71;98339.09;4906227;29;20048;-73
2023/06/24 04:43:57;;;;;;;0.13;0.13;;;;;;;14.57;84.29;98337.28;4894622;29;20048;-72
2023/06/24 04:46:25;;;;;;;0.13;0.13;;;;;;;14.58;84.25;98338.94;4882695;29;20047;-72
2023/06/24 04:48:53;;;;;;;0.20;0.20;;;;;;;14.52;84.19;98355.06;4882899;29;20084;-72
2023/06/24 04:51:21;;;;;;;0.20;0.20;;;;;;;14.43;84.39;98359.75;4895377;29;20135;-73
2023/06/24 04:53:49;;;;;;;0.05;0.05;;;;;;;14.46;84.36;98358.53;4890609;29;20104;-72
2023/06/24 04:56:17;;;;;;;0.10;0.10;;;;;;;14.52;84.35;98368.50;4900520;29;20048;-73
2023/06/24 04:58:44;;;;;;;0.40;0.40;;;;;;;14.60;84.38;98360.25;4892585;29;20080;-72
2023/06/24 05:01:12;;;;;;;0.15;0.15;;;;;;;14.52;84.91;98355.88;4893576;29;20045;-72
2023/06/24 05:03:40;;;;;;;0.08;0.08;;;;;;;14.64;84.59;98359.63;4889168;29;20048;-72
2023/06/24 05:06:07;;;;;;;0.20;0.20;;;;;;;14.79;84.63;98359.47;4897535;29;20037;-72
2023/06/24 05:08:36;;;;;;;0.13;0.13;;;;;;;14.86;84.03;98360.31;4889126;29;20055;-73
2023/06/24 05:11:04;;;;;;;0.22;0.22;;;;;;;14.95;84.06;98358.28;4897492;29;20409;-73
2023/06/24 05:13:32;;;;;;;0.22;0.22;;;;;;;15.05;83.48;98364.09;4892129;29;20051;-73
2023/06/24 05:16:00;;;;;;;0.22;0.22;;;;;;;15.15;83.16;98355.63;4901885;29;20045;-73
2023/06/24 05:18:27;;;;;;;0.25;0.25;;;;;;;15.17;83.26;98359.75;4898367;29;20047;-72
2023/06/24 05:20:55;;;;;;;0.13;0.13;;;;;;;15.17;83.62;98365.13;4895372;29;20040;-73
2023/06/24 05:23:23;;;;;;;0.00;0.00;;;;;;;15.13;83.43;98358.53;4896136;29;20055;-72
2023/06/24 05:25:52;;;;;;;0.30;0.30;;;;;;;15.17;83.57;98362.44;4898401;29;20119;-72
2023/06/24 05:28:19;;;;;;;0.10;0.10;;;;;;;15.23;83.66;98366.19;4892539;29;20071;-72
2023/06/24 05:30:47;;;;;;;0.22;0.22;;;;;;;15.32;83.61;98364.97;4905935;29;20063;-73
2023/06/24 05:33:14;;;;;;;0.13;0.13;;;;;;;15.36;83.33;98361.66;4898820;29;20057;-73
2023/06/24 05:35:43;;;;;;;0.10;0.10;;;;;;;15.45;83.67;98364.97;4896171;29;20088;-72
2023/06/24 05:38:11;;;;;;;0.10;0.10;;;;;;;15.53;82.90;98359.38;4894617;29;20321;-73
2023/06/24 05:40:38;;;;;;;0.13;0.13;;;;;;;15.65;82.81;98365.00;4893766;29;20496;-73
2023/06/24 05:43:07;;;;;;;0.13;0.13;;;;;;;15.74;83.02;98372.66;4902857;29;20056;-72
2023/06/24 05:45:35;;;;;;;0.20;0.20;;;;;;;15.83;83.02;98375.13;4888935;29;20041;-73
2023/06/24 05:48:03;;;;;;;0.10;0.10;;;;;;;15.95;82.81;98376.16;4898097;29;20135;-73
2023/06/24 05:50:31;;;;;;;0.13;0.13;;;;;;;16.01;82.66;98370.75;4893919;29;20052;-73
2023/06/24 05:52:58;;;;;;;0.13;0.13;;;;;;;16.05;83.06;98369.28;4898768;29;20062;-73
2023/06/24 05:55:26;;;;;;;0.10;0.10;;;;;;;16.16;82.46;98365.13;4892459;29;20050;-73
2023/06/24 05:57:54;;;;;;;0.22;0.13;;;;;;;16.23;81.96;98367.78;4891117;29;20082;-74
2023/06/24 06:00:23;;;;;;;0.10;0.10;;;;;;;16.33;81.93;98369.00;4898879;29;20082;-72
2023/06/24 06:02:50;;;;;;;0.10;0.10;;;;;;;16.37;81.88;98370.25;4887380;29;20067;-73
2023/06/24 06:05:18;;;;;;;0.13;0.13;;;;;;;16.48;81.81;98358.81;4886294;29;20041;-73
2023/06/24 06:07:45;;;;;;;0.22;0.22;;;;;;;16.58;81.30;98371.00;4889975;29;20056;-73
2023/06/24 06:10:15;;;;;;;0.10;0.10;;;;;;;16.62;81.47;98366.84;4898794;29;20052;-72
2023/06/24 06:12:43;;;;;;;0.10;0.10;;;;;;;16.63;81.65;98366.63;4897828;29;20082;-72
2023/06/24 06:15:11;;;;;;;0.10;0.10;;;;;;;16.66;81.68;98368.09;4907928;29;20136;-72
2023/06/24 06:17:40;;;;;;;0.13;0.13;;;;;;;16.75;81.39;98369.50;4899805;29;20053;-72
2023/06/24 06:20:09;;;;;;;0.22;0.22;;;;;;;16.86;81.75;98361.56;4896784;29;20100;-73
2023/06/24 06:22:38;;;;;;;0.17;0.17;;;;;;;16.82;80.71;98362.19;4903624;29;20044;-73
2023/06/24 06:25:06;;;;;;;0.03;0.03;;;;;;;16.89;81.07;98363.00;4903344;29;20052;-71
2023/06/24 06:27:34;;;;;;;0.20;0.20;;;;;;;16.89;81.13;98363.00;4899738;29;20040;-72
2023/06/24 06:30:02;;;;;;;0.13;0.13;;;;;;;17.00;81.01;98370.41;4899827;29;20059;-72
2023/06/24 06:32:29;;;;;;;0.13;0.13;;;;;;;17.18;80.95;98364.28;4905180;29;20048;-73
2023/06/24 06:35:00;;;;;;;0.13;0.13;;;;;;;17.39;79.92;98365.78;4891554;29;20591;-73
2023/06/24 06:37:28;;;;;;;0.20;0.20;;;;;;;17.63;76.46;98358.78;4887565;29;20052;-73
2023/06/24 06:39:55;;;;;;;0.03;0.03;;;;;;;17.75;76.19;98362.44;4891851;29;20166;-72
2023/06/24 06:42:23;;;;;;;0.10;0.10;;;;;;;17.85;76.34;98358.19;4892360;29;20123;-72
2023/06/24 06:44:50;;;;;;;0.13;0.13;;;;;;;18.00;75.34;98354.28;4897513;29;20049;-73
2023/06/24 06:47:18;;;;;;;0.15;0.15;;;;;;;18.10;74.67;98355.41;4889321;29;20048;-73
2023/06/24 06:49:46;;;;;;;0.03;0.03;;;;;;;18.10;73.75;98357.28;4896610;29;20045;-73
2023/06/24 06:52:15;;;;;;;0.03;0.03;;;;;;;18.04;74.17;98355.50;4898901;29;20055;-73
2023/06/24 06:54:44;;;;;;;0.13;0.13;;;;;;;18.13;72.21;98360.38;4892170;29;20045;-73
2023/06/24 06:57:12;;;;;;;0.20;0.20;;;;;;;18.23;72.42;98357.16;4888763;29;20560;-73
2023/06/24 06:59:39;;;;;;;0.10;0.10;;;;;;;18.40;71.59;98357.38;4901988;29;20041;-73
2023/06/24 07:02:07;;;;;;;0.20;0.20;;;;;;;18.34;70.22;98356.41;4886869;29;20053;-73
2023/06/24 07:04:35;;;;;;;0.13;0.13;;;;;;;18.54;69.64;98357.00;4886831;29;20048;-73
2023/06/24 07:07:03;;;;;;;0.15;0.15;;;;;;;18.59;69.50;98365.28;4896055;29;20063;-72
2023/06/24 07:09:31;;;;;;;0.13;0.13;;;;;;;18.47;68.09;98361.69;4895401;29;20048;-73
2023/06/24 07:11:59;;;;;;;0.03;0.03;;;;;;;18.49;67.89;98364.13;4897635;29;20386;-73
2023/06/24 07:14:27;;;;;;;0.10;0.10;;;;;;;18.56;66.61;98363.00;4901287;29;20055;-72
2023/06/24 07:16:54;;;;;;;0.20;0.20;;;;;;;18.61;66.67;98373.16;4901833;29;20036;-73
2023/06/24 07:19:22;;;;;;;0.10;0.10;;;;;;;18.84;65.41;98367.06;4899293;29;20040;-73
2023/06/24 07:21:49;;;;;;;0.20;0.20;;;;;;;19.00;65.62;98369.13;4903892;29;20048;-73
2023/06/24 07:24:17;;;;;;;0.00;0.00;;;;;;;19.11;65.37;98365.63;4903109;29;20251;-73
2023/06/24 07:26:46;;;;;;;0.20;0.20;;;;;;;19.15;64.22;98366.84;4904914;29;20043;-75
2023/06/24 07:29:13;;;;;;;0.10;0.10;;;;;;;18.91;65.33;98367.78;4897364;29;20057;-75
2023/06/24 07:31:41;;;;;;;0.10;0.10;;;;;;;19.01;65.53;98362.66;4905779;29;20505;-73
2023/06/24 07:34:09;;;;;;;0.20;0.20;;;;;;;19.26;65.20;98365.22;4887482;29;20053;-73
2023/06/24 07:36:37;;;;;;;0.13;0.13;;;;;;;19.43;64.39;98369.72;4907513;29;20357;-73
2023/06/24 07:39:05;;;;;;;0.15;0.15;;;;;;;19.60;64.17;98367.22;4896438;29;20044;-73
2023/06/24 07:41:33;;;;;;;0.20;0.20;;;;;;;19.87;62.82;98369.47;4908320;29;20047;-73
2023/06/24 07:44:02;;;;;;;0.10;0.10;;;;;;;19.66;60.94;98358.16;4888394;29;20045;-73
2023/06/24 07:46:29;;;;;;;0.03;0.03;;;;;;;19.68;61.04;98358.75;4894708;29;20040;-73
2023/06/24 07:48:57;;;;;;;0.15;0.15;;;;;;;19.71;61.50;98362.88;4898519;29;20421;-72
2023/06/24 07:51:25;;;;;;;0.13;0.13;;;;;;;19.54;60.82;98356.47;4895789;29;20082;-73
2023/06/24 07:53:52;;;;;;;0.10;0.00;;;;;;;19.86;59.66;98354.25;4896601;29;22075;-73
2023/06/24 07:56:20;;;;;;;0.03;0.03;;;;;;;20.06;59.20;98366.41;4932079;23;20063;-75
2023/06/24 07:58:48;;;;;;;0.10;0.10;;;;;;;19.95;59.45;98356.38;4918800;29;20138;-75
2023/06/24 08:01:16;;;;;;;0.17;0.17;;;;;;;20.14;59.82;98359.81;4914049;29;20072;-75
2023/06/24 08:03:44;;;;;;;0.30;0.30;;;;;;;20.48;59.40;98350.81;4909909;29;20044;-75
2023/06/24 08:06:12;;;;;;;0.03;0.03;;;;;;;20.81;58.38;98338.47;4914035;29;20059;-75
2023/06/24 08:08:39;;;;;;;0.22;0.22;;;;;;;21.08;57.51;98353.06;4900547;29;20044;-75
2023/06/24 08:11:07;;;;;;;0.13;0.13;;;;;;;21.18;55.49;98355.19;4913635;29;20496;-75
2023/06/24 08:13:34;;;;;;;0.10;0.10;;;;;;;20.92;56.36;98353.03;4889631;29;20392;-75
2023/06/24 08:16:02;;;;;;;0.10;0.10;;;;;;;20.85;57.52;98348.59;4901592;29;20053;-75
2023/06/24 08:18:31;;;;;;;0.10;0.10;;;;;;;20.89;55.92;98349.75;4892784;29;20051;-75
2023/06/24 08:20:59;;;;;;;0.10;0.10;;;;;;;21.21;54.64;98343.84;4894842;29;20423;-74
2023/06/24 08:23:26;;;;;;;0.10;0.10;;;;;;;20.42;57.30;98340.94;4893387;29;20131;-74
2023/06/24 08:25:54;;;;;;;0.10;0.10;;;;;;;21.10;56.90;98355.56;4905635;29;20055;-74
2023/06/24 08:28:39;;;;;;;0.13;0.13;;;;;;;21.48;54.26;98357.66;4891855;29;20051;-74
2023/06/24 08:31:06;;;;;;;0.00;0.00;;;;;;;21.71;53.76;98353.91;4907921;29;20427;-74
2023/06/24 08:33:35;;;;;;;0.10;0.10;;;;;;;21.35;52.59;98353.34;4894244;29;20049;-75
2023/06/24 08:36:03;;;;;;;0.03;0.03;;;;;;;21.30;53.77;98363.28;4906346;29;20048;-76
2023/06/24 08:38:30;;;;;;;0.10;0.10;;;;;;;21.24;53.85;98355.06;4897399;29;20045;-75
2023/06/24 08:40:58;;;;;;;0.13;0.13;;;;;;;21.36;51.82;98363.16;4906864;29;20055;-75
2023/06/24 08:43:26;;;;;;;0.10;0.10;;;;;;;21.69;51.42;98365.06;4897714;29;20049;-75
2023/06/24 08:45:53;;;;;;;0.13;0.13;;;;;;;21.74;50.86;98372.47;4888786;29;20638;-74
2023/06/24 08:48:21;;;;;;;0.03;0.03;;;;;;;21.71;48.49;98375.66;4903855;29;20054;-74
2023/06/24 08:50:52;;;;;;;0.32;0.32;;;;;;;21.44;50.14;98379.03;4895591;29;20319;-74
2023/06/24 08:53:21;;;;;;;0.10;0.10;;;;;;;21.87;48.33;98383.00;4902942;29;20036;-74
2023/06/24 08:55:50;;;;;;;0.10;0.10;;;;;;;22.20;46.45;98372.13;4890148;29;20053;-74
2023/06/24 08:58:17;;;;;;;0.10;0.10;;;;;;;22.16;47.09;98375.59;4895482;29;20044;-74
2023/06/24 09:00:45;;;;;;;0.15;0.15;;;;;;;22.50;45.76;98368.19;4900352;29;20056;-75
2023/06/24 09:03:13;;;;;;;0.10;0.10;;;;;;;22.67;45.17;98367.03;4888575;29;20054;-74
2023/06/24 09:05:41;;;;;;;0.05;0.05;;;;;;;22.20;45.97;98366.69;4890588;29;20076;-74
2023/06/24 09:08:09;;;;;;;0.00;0.00;;;;;;;22.61;44.95;98362.63;4892099;29;20044;-74
2023/06/24 09:10:38;;;;;;;0.10;0.10;;;;;;;22.81;44.57;98361.25;4888566;29;20040;-74
2023/06/24 09:13:07;;;;;;;0.08;0.08;;;;;;;23.03;45.91;98364.78;4896668;29;20459;-74
2023/06/24 09:15:36;;;;;;;0.10;0.10;;;;;;;23.23;44.49;98356.00;4902609;29;20044;-74
2023/06/24 09:18:05;;;;;;;0.00;0.00;;;;;;;23.38;44.75;98353.41;4895701;29;20055;-74
2023/06/24 09:20:39;;;;;;;0.00;0.00;;;;;;;23.71;45.20;98361.38;4880516;29;20052;-74
2023/06/24 09:23:07;;;;;;;0.05;0.05;;;;;;;23.66;45.46;98361.34;4888353;29;20480;-75
2023/06/24 09:25:38;;;;;;;0.10;0.10;;;;;;;23.90;45.08;98361.78;4885805;29;20052;-74
2023/06/24 09:28:06;;;;;;;0.00;0.00;;;;;;;24.00;44.05;98361.84;4901533;29;20053;-74
2023/06/24 09:30:33;;;;;;;0.00;0.00;;;;;;;24.12;44.17;98364.38;4907005;29;20127;-74
2023/06/24 09:33:02;;;;;;;0.10;0.10;;;;;;;24.09;44.19;98359.44;4897531;29;20044;-74
2023/06/24 09:35:35;;;;;;;0.10;0.10;;;;;;;24.28;41.44;98348.97;4912480;29;20048;-74
2023/06/24 09:38:03;;;;;;;0.00;0.00;;;;;;;24.32;41.26;98347.34;4906645;29;20039;-74
2023/06/24 09:40:35;;;;;;;0.10;0.10;;;;;;;23.52;41.08;98342.94;4899642;29;20055;-75
2023/06/24 09:43:04;;;;;;;;;;;;;;;23.28;42.01;98343.22;4913542;29;20079;-72
2023/06/24 09:45:34;;;;;;;0.00;0.00;;;;;;;23.41;41.54;98345.53;4898247;29;19927;-75
2023/06/24 09:48:03;;;;;;;0.00;0.00;;;;;;;23.49;42.33;98343.41;4909029;29;20451;-73
2023/06/24 09:50:31;;;;;;;0.00;0.00;;;;;;;23.62;42.46;98349.31;4900107;29;20676;-73
2023/06/24 09:52:59;;;;;;;0.05;0.05;;;;;;;24.02;40.50;98348.78;4905470;29;20083;-75
2023/06/24 09:55:28;;;;;;;0.10;0.10;;;;;;;24.14;41.69;98354.03;4895315;29;20075;-73
2023/06/24 09:57:56;;;;;;;0.10;0.00;;;;;;;24.00;41.19;98344.66;4907142;29;20522;-73
2023/06/24 10:00:26;;;;;;;0.10;0.10;;;;;;;23.63;41.81;98339.22;4905053;29;20048;-74
2023/06/24 10:02:54;;;;;;;0.10;0.10;;;;;;;21.95;45.08;98339.09;4900929;29;20445;-73
2023/06/24 10:05:26;;;;;;;0.03;0.03;;;;;;;23.27;43.87;98340.75;4912910;29;20048;-73
2023/06/24 10:07:54;;;;;;;0.05;0.05;;;;;;;23.84;42.06;98349.19;4901283;29;20074;-73
2023/06/24 10:10:21;;;;;;;0.00;0.00;;;;;;;24.21;41.88;98338.25;4915898;29;20040;-73
2023/06/24 10:12:49;;;;;;;0.05;0.05;;;;;;;24.54;40.68;98342.56;4895898;29;20053;-74
2023/06/24 10:15:17;;;;;;;0.03;0.03;;;;;;;24.70;39.67;98338.00;4900626;29;20136;-73
2023/06/24 10:17:47;;;;;;;0.03;0.03;;;;;;;24.87;39.29;98336.69;4903375;29;20044;-73
2023/06/24 10:20:25;;;;;;;0.00;0.00;;;;;;;24.81;38.44;98334.22;4900583;29;20532;-73
2023/06/24 10:22:53;;;;;;;0.10;0.10;;;;;;;25.06;39.34;98339.75;4906501;29;20041;-74
2023/06/24 10:25:21;;;;;;;0.03;0.03;;;;;;;24.76;39.77;98335.00;4908935;29;20040;-74
2023/06/24 10:27:54;;;;;;;0.10;0.10;;;;;;;25.31;40.82;98336.25;4907876;29;20127;-74
2023/06/24 10:30:23;;;;;;;0.03;0.03;;;;;;;25.55;40.33;98336.53;4905145;29;20040;-73
2023/06/24 10:32:54;;;;;;;0.08;0.08;;;;;;;25.62;40.02;98339.88;4904987;29;20044;-74
2023/06/24 10:35:24;;;;;;;0.10;0.10;;;;;;;25.96;38.60;98338.19;4901271;29;20103;-73
2023/06/24 10:37:56;;;;;;;0.10;0.03;;;;;;;26.07;38.14;98339.00;4905944;29;20036;-73
2023/06/24 10:40:38;;;;;;;0.03;0.03;;;;;;;26.20;37.07;98332.94;4896210;29;20055;-73
2023/06/24 10:43:29;;;;;;;0.00;0.00;;;;;;;26.37;37.08;98332.66;4911203;29;20075;-74
2023/06/24 10:45:58;;;;;;;0.00;0.00;;;;;;;26.20;35.45;98334.88;4898482;29;20556;-74
2023/06/24 10:48:27;;;;;;;0.00;0.00;;;;;;;26.18;35.41;98339.78;4904474;29;20041;-73
2023/06/24 10:50:55;;;;;;;0.00;0.00;;;;;;;26.44;36.48;98343.31;4896128;29;20068;-73
2023/06/24 10:53:23;;;;;;;0.08;0.05;;;;;;;26.63;34.05;98336.13;4901591;29;20047;-74
2023/06/24 10:55:50;;;;;;;0.00;0.00;;;;;;;26.11;33.09;98340.09;4897746;29;20540;-73
2023/06/24 10:58:18;;;;;;;0.00;0.00;;;;;;;26.17;32.46;98332.66;4889730;29;20044;-73
2023/06/24 11:00:46;;;;;;;0.00;0.00;;;;;;;26.09;32.35;98320.38;4902370;29;20072;-73
2023/06/24 11:03:15;;;;;;;0.00;0.00;;;;;;;25.34;33.96;98316.56;4901674;29;20052;-73
2023/06/24 11:05:46;;;;;;;0.10;0.10;;;;;;;25.98;33.46;98320.66;4903180;29;20048;-73
2023/06/24 11:08:14;;;;;;;0.10;0.10;;;;;;;25.51;34.98;98319.06;4899827;29;20116;-73
2023/06/24 11:10:46;;;;;;;0.00;0.00;;;;;;;26.05;34.26;98319.31;4912531;29;20048;-73
2023/06/24 11:13:14;;;;;;;0.03;0.03;;;;;;;26.42;32.14;98318.97;4899375;29;20076;-73
2023/06/24 11:15:42;;;;;;;0.03;0.03;;;;;;;26.45;32.14;98318.41;4899928;29;20044;-73
2023/06/24 11:18:11;;;;;;;0.00;0.00;;;;;;;26.16;31.65;98317.38;4897916;29;20049;-73
2023/06/24 11:20:39;;;;;;;0.00;0.00;;;;;;;26.07;32.32;98322.56;4901840;29;20412;-73
2023/06/24 11:23:10;;;;;;;0.03;0.03;;;;;;;26.42;32.48;98313.47;4909763;29;20044;-73
2023/06/24 11:25:42;;;;;;;0.00;0.00;;;;;;;26.68;32.15;98317.75;4905043;29;20054;-73
2023/06/24 11:28:14;;;;;;;0.10;0.10;;;;;;;26.75;32.84;98305.69;4908303;29;20036;-73
2023/06/24 11:30:42;;;;;;;0.00;0.00;;;;;;;26.93;33.33;98305.06;4902456;29;20518;-73
2023/06/24 11:33:10;;;;;;;0.00;0.00;;;;;;;26.67;31.24;98310.66;4906105;29;20140;-72
2023/06/24 11:35:37;;;;;;;0.00;0.00;;;;;;;26.59;32.19;98303.00;4900596;29;20122;-73
2023/06/24 11:38:05;;;;;;;0.00;0.00;;;;;;;25.21;33.88;98303.44;4910559;29;20040;-72
2023/06/24 11:40:34;;;;;;;0.00;0.00;;;;;;;25.94;28.15;98301.28;4899280;29;20048;-73
2023/06/24 11:43:03;;;;;;;0.05;0.05;;;;;;;26.37;29.88;98297.06;4911953;29;20127;-72